Aviation Digital Data Service (ADDS)

Output produced by METARs form (1301 UTC 15 November 2018)
found at http://www.aviationweather.gov/metar/data/
 
BKPR 151300Z 04009KT 9999 SCT050 11/M03 Q1024 NOSIG RMK 17010095
TAF BKPR 151130Z 1512/1612 01010KT 9999 SCT040 
     TEMPO 1604/1607 3000 BR